createdAt,value
2023-05-24T00:00:22.481Z,14.50
2023-05-24T00:02:49.375Z,14.35
2023-05-24T00:05:16.964Z,14.18
2023-05-24T00:07:43.711Z,14.21
2023-05-24T00:10:12.089Z,14.13
2023-05-24T00:12:38.762Z,14.08
2023-05-24T00:15:05.729Z,14.10
2023-05-24T00:17:32.420Z,14.02
2023-05-24T00:19:59.928Z,14.06
2023-05-24T00:22:26.573Z,14.05
2023-05-24T00:24:53.226Z,13.82
2023-05-24T00:27:20.124Z,13.91
2023-05-24T00:29:46.764Z,13.86
2023-05-24T00:32:13.661Z,13.85
2023-05-24T00:34:40.770Z,13.72
2023-05-24T00:37:07.797Z,13.61
2023-05-24T00:39:34.495Z,13.56
2023-05-24T00:42:01.238Z,13.45
2023-05-24T00:44:27.881Z,13.51
2023-05-24T00:46:54.822Z,13.39
2023-05-24T00:49:22.697Z,13.35
2023-05-24T00:51:51.432Z,13.12
2023-05-24T00:54:18.529Z,13.14
2023-05-24T00:56:45.717Z,13.14
2023-05-24T00:59:12.515Z,13.14
2023-05-24T01:01:39.238Z,12.88
2023-05-24T01:04:06.218Z,13.03
2023-05-24T01:06:45.144Z,12.93
2023-05-24T01:09:14.810Z,12.85
2023-05-24T01:12:08.280Z,12.76
2023-05-24T01:14:49.836Z,12.64
2023-05-24T01:17:37.655Z,12.57
2023-05-24T01:20:09.020Z,12.55
2023-05-24T01:22:42.389Z,12.49
2023-05-24T01:25:12.041Z,12.47
2023-05-24T01:27:39.088Z,12.47
2023-05-24T01:30:07.562Z,12.31
2023-05-24T01:32:34.663Z,12.17
2023-05-24T01:35:01.518Z,12.15
2023-05-24T01:37:28.146Z,12.11
2023-05-24T01:39:55.499Z,12.06
2023-05-24T01:42:42.770Z,12.06
2023-05-24T01:45:18.226Z,12.00
2023-05-24T01:48:06.393Z,11.94
2023-05-24T01:50:38.307Z,11.89
2023-05-24T01:53:09.517Z,11.85
2023-05-24T01:55:37.674Z,11.84
2023-05-24T01:58:06.437Z,11.73
2023-05-24T02:00:34.728Z,11.75
2023-05-24T02:03:02.519Z,11.79
2023-05-24T02:05:29.408Z,11.76
2023-05-24T02:07:56.257Z,11.68
2023-05-24T02:10:23.050Z,11.58
2023-05-24T02:12:49.926Z,11.59
2023-05-24T02:15:16.700Z,11.44
2023-05-24T02:17:43.486Z,11.30
2023-05-24T02:20:11.188Z,11.35
2023-05-24T02:22:37.874Z,11.46
2023-05-24T02:25:04.892Z,11.44
2023-05-24T02:27:31.501Z,11.37
2023-05-24T02:29:58.083Z,11.35
2023-05-24T02:32:24.686Z,11.31
2023-05-24T02:34:51.484Z,11.27
2023-05-24T02:37:18.130Z,11.19
2023-05-24T02:39:44.713Z,11.13
2023-05-24T02:42:11.661Z,11.12
2023-05-24T02:44:38.338Z,10.96
2023-05-24T02:47:05.961Z,10.97
2023-05-24T02:49:32.692Z,10.91
2023-05-24T02:51:59.603Z,10.85
2023-05-24T02:54:26.224Z,10.72
2023-05-24T02:56:52.889Z,10.76
2023-05-24T02:59:19.478Z,10.77
2023-05-24T03:01:46.208Z,10.74
2023-05-24T03:04:12.916Z,10.72
2023-05-24T03:06:39.584Z,10.68
2023-05-24T03:09:06.211Z,10.61
2023-05-24T03:11:32.908Z,10.51
2023-05-24T03:13:59.569Z,10.37
2023-05-24T03:16:26.215Z,10.56
2023-05-24T03:18:55.472Z,10.54
2023-05-24T03:21:23.597Z,10.51
2023-05-24T03:23:50.493Z,10.57
2023-05-24T03:26:18.828Z,10.50
2023-05-24T03:28:47.973Z,10.60
2023-05-24T03:31:14.629Z,10.54
2023-05-24T03:33:41.238Z,10.54
2023-05-24T03:36:07.963Z,10.57
2023-05-24T03:38:34.637Z,10.62
2023-05-24T03:41:01.280Z,10.78
2023-05-24T03:43:27.883Z,10.81
2023-05-24T03:45:54.833Z,10.80
2023-05-24T03:48:21.751Z,10.84
2023-05-24T03:50:48.533Z,10.97
2023-05-24T03:53:15.531Z,10.84
2023-05-24T03:55:42.196Z,10.99
2023-05-24T03:58:08.828Z,11.08
2023-05-24T04:00:35.616Z,10.94
2023-05-24T04:03:02.569Z,11.05
2023-05-24T04:05:30.277Z,11.04
2023-05-24T04:07:56.875Z,11.07
2023-05-24T04:10:23.585Z,11.04
2023-05-24T04:12:52.925Z,11.11
2023-05-24T04:15:19.653Z,11.24
2023-05-24T04:17:46.916Z,11.40
2023-05-24T04:20:13.843Z,11.42
2023-05-24T04:22:40.939Z,11.66
2023-05-24T04:25:10.225Z,11.76
2023-05-24T04:27:38.105Z,11.87
2023-05-24T04:30:05.802Z,11.91
2023-05-24T04:32:32.408Z,12.09
2023-05-24T04:34:59.087Z,12.09
2023-05-24T04:37:25.659Z,12.16
2023-05-24T04:39:52.325Z,12.02
2023-05-24T04:42:18.886Z,12.06
2023-05-24T04:44:45.483Z,12.00
2023-05-24T04:47:13.010Z,12.13
2023-05-24T04:49:39.958Z,11.99
2023-05-24T04:52:07.794Z,12.00
2023-05-24T04:54:35.161Z,11.97
2023-05-24T04:57:02.241Z,11.98
2023-05-24T04:59:28.832Z,11.93
2023-05-24T05:01:56.624Z,12.02
2023-05-24T05:04:23.278Z,12.22
2023-05-24T05:06:50.438Z,12.33
2023-05-24T05:09:17.426Z,12.33
2023-05-24T05:11:44.083Z,12.34
2023-05-24T05:14:10.930Z,12.45
2023-05-24T05:16:38.447Z,12.57
2023-05-24T05:19:05.368Z,12.58
2023-05-24T05:21:36.785Z,12.74
2023-05-24T05:24:04.320Z,12.77
2023-05-24T05:26:31.051Z,12.82
2023-05-24T05:28:58.675Z,12.80
2023-05-24T05:31:25.933Z,13.19
2023-05-24T05:33:52.612Z,13.01
2023-05-24T05:36:19.304Z,13.06
2023-05-24T05:38:46.723Z,13.10
2023-05-24T05:41:13.611Z,12.69
2023-05-24T05:43:40.327Z,12.83
2023-05-24T05:46:07.322Z,12.86
2023-05-24T05:48:34.253Z,12.89
2023-05-24T05:51:01.117Z,12.86
2023-05-24T05:53:27.895Z,12.92
2023-05-24T05:55:54.622Z,12.87
2023-05-24T05:58:21.197Z,13.10
2023-05-24T06:00:47.795Z,13.00
2023-05-24T06:03:14.539Z,12.98
2023-05-24T06:05:42.103Z,12.84
2023-05-24T06:08:08.809Z,12.68
2023-05-24T06:10:35.420Z,12.84
2023-05-24T06:13:03.811Z,12.99
2023-05-24T06:15:31.393Z,12.86
2023-05-24T06:17:58.233Z,12.79
2023-05-24T06:20:25.341Z,12.91
2023-05-24T06:22:52.339Z,12.94
2023-05-24T06:25:21.024Z,13.13
2023-05-24T06:27:47.791Z,13.05
2023-05-24T06:30:14.603Z,13.07
2023-05-24T06:32:41.394Z,13.18
2023-05-24T06:35:08.945Z,13.10
2023-05-24T06:37:36.434Z,13.18
2023-05-24T06:40:06.051Z,13.25
2023-05-24T06:42:32.687Z,13.12
2023-05-24T06:44:59.287Z,13.33
2023-05-24T06:47:25.990Z,13.64
2023-05-24T06:49:52.818Z,13.55
2023-05-24T06:52:19.654Z,13.83
2023-05-24T06:54:46.266Z,13.93
2023-05-24T06:57:13.198Z,13.74
2023-05-24T06:59:40.099Z,13.90
2023-05-24T07:02:06.899Z,13.88
2023-05-24T07:04:33.675Z,13.88
2023-05-24T07:07:00.437Z,13.93
2023-05-24T07:09:27.150Z,14.08
2023-05-24T07:11:53.930Z,14.30
2023-05-24T07:14:21.027Z,14.58
2023-05-24T07:16:48.869Z,14.80
2023-05-24T07:19:15.585Z,14.68
2023-05-24T07:21:42.168Z,14.69
2023-05-24T07:24:09.245Z,14.64
2023-05-24T07:26:35.827Z,14.83
2023-05-24T07:29:02.450Z,14.96
2023-05-24T07:31:31.534Z,14.94
2023-05-24T07:33:58.733Z,14.96
2023-05-24T07:36:26.272Z,15.00
2023-05-24T07:38:53.378Z,14.98
2023-05-24T07:41:20.028Z,15.12
2023-05-24T07:43:46.681Z,15.01
2023-05-24T07:46:13.412Z,14.95
2023-05-24T07:48:40.075Z,14.94
2023-05-24T07:51:06.672Z,14.77
2023-05-24T07:53:34.869Z,14.76
2023-05-24T07:56:01.550Z,14.72
2023-05-24T07:58:28.251Z,14.78
2023-05-24T08:00:55.126Z,14.87
2023-05-24T08:03:21.942Z,14.42
2023-05-24T08:05:48.925Z,14.74
2023-05-24T08:08:15.811Z,14.89
2023-05-24T08:10:42.709Z,15.30
2023-05-24T08:13:09.549Z,15.61
2023-05-24T08:15:36.416Z,15.80
2023-05-24T08:18:03.918Z,15.55
2023-05-24T08:20:30.750Z,15.84
2023-05-24T08:22:57.406Z,15.39
2023-05-24T08:25:24.462Z,15.37
2023-05-24T08:27:52.352Z,15.51
2023-05-24T08:30:20.158Z,15.59
2023-05-24T08:32:47.025Z,15.56
2023-05-24T08:35:20.743Z,15.54
2023-05-24T08:37:49.553Z,15.83
2023-05-24T08:40:16.883Z,15.48
2023-05-24T08:42:44.924Z,15.86
2023-05-24T08:45:13.229Z,15.36
2023-05-24T08:47:40.332Z,15.46
2023-05-24T08:50:08.760Z,15.36
2023-05-24T08:52:36.309Z,15.37
2023-05-24T08:55:05.552Z,15.61
2023-05-24T08:57:34.903Z,15.40
2023-05-24T09:00:02.036Z,15.38
2023-05-24T09:02:30.357Z,15.66
2023-05-24T09:04:57.564Z,15.76
2023-05-24T09:07:24.950Z,15.93
2023-05-24T09:10:07.518Z,16.11
2023-05-24T09:12:39.319Z,15.82
2023-05-24T09:15:08.616Z,15.67
2023-05-24T09:17:37.373Z,15.90
2023-05-24T09:20:07.521Z,15.57
2023-05-24T09:22:37.438Z,15.55
2023-05-24T09:25:06.400Z,15.69
2023-05-24T09:27:35.210Z,15.72
2023-05-24T09:30:04.075Z,15.59
2023-05-24T09:32:31.997Z,15.73
2023-05-24T09:34:59.669Z,15.85
2023-05-24T09:37:31.028Z,15.97
2023-05-24T09:39:59.525Z,16.04
2023-05-24T09:42:31.242Z,15.90
2023-05-24T09:45:09.649Z,15.93
2023-05-24T09:47:38.079Z,16.01
2023-05-24T09:50:07.322Z,15.92
2023-05-24T09:52:38.422Z,16.36
2023-05-24T09:55:15.712Z,16.38
2023-05-24T09:57:44.609Z,16.88
2023-05-24T10:00:17.184Z,16.36
2023-05-24T10:02:52.951Z,16.77
2023-05-24T10:05:21.417Z,16.74
2023-05-24T10:07:48.294Z,16.72
2023-05-24T10:10:15.211Z,16.50
2023-05-24T10:12:44.271Z,17.04
2023-05-24T10:15:11.358Z,16.54
2023-05-24T10:17:38.453Z,16.76
2023-05-24T10:20:07.330Z,16.52
2023-05-24T10:22:40.550Z,16.53
2023-05-24T10:25:10.952Z,16.78
2023-05-24T10:27:38.708Z,16.80
2023-05-24T10:30:29.203Z,16.76
2023-05-24T10:32:57.196Z,16.74
2023-05-24T10:35:25.351Z,16.77
2023-05-24T10:37:52.555Z,16.57
2023-05-24T10:40:25.905Z,16.40
2023-05-24T10:42:54.529Z,16.61
2023-05-24T10:45:37.166Z,17.09
2023-05-24T10:48:13.566Z,16.80
2023-05-24T10:50:41.453Z,17.15
2023-05-24T10:53:11.753Z,17.01
2023-05-24T10:56:01.511Z,16.62
2023-05-24T10:58:45.019Z,16.95
2023-05-24T11:01:27.254Z,16.62
2023-05-24T11:04:06.027Z,17.02
2023-05-24T11:06:56.011Z,17.18
2023-05-24T11:09:23.349Z,17.62
2023-05-24T11:11:55.230Z,17.25
2023-05-24T11:14:29.390Z,17.38
2023-05-24T11:16:56.332Z,17.24
2023-05-24T11:19:47.607Z,17.16
2023-05-24T11:22:18.109Z,17.62
2023-05-24T11:24:45.459Z,17.65
2023-05-24T11:27:14.749Z,17.85
2023-05-24T11:29:47.922Z,17.69
2023-05-24T11:32:16.667Z,17.76
2023-05-24T11:34:45.331Z,17.46
2023-05-24T11:37:14.443Z,17.38
2023-05-24T11:39:42.756Z,17.62
2023-05-24T11:42:09.422Z,17.54
2023-05-24T11:44:40.036Z,17.36
2023-05-24T11:47:08.396Z,17.25
2023-05-24T11:49:35.649Z,17.39
2023-05-24T11:52:02.954Z,17.62
2023-05-24T11:54:32.852Z,17.65
2023-05-24T11:56:59.745Z,17.75
2023-05-24T11:59:28.164Z,17.16
2023-05-24T12:02:03.904Z,17.86
2023-05-24T12:04:31.661Z,17.67
2023-05-24T12:06:59.651Z,18.26
2023-05-24T12:09:27.081Z,18.71
2023-05-24T12:11:54.286Z,18.35
2023-05-24T12:14:27.658Z,18.45
2023-05-24T12:16:57.815Z,18.52
2023-05-24T12:21:59.251Z,18.24
2023-05-24T12:24:27.075Z,18.54
2023-05-24T12:26:59.510Z,18.33
2023-05-24T12:29:26.297Z,18.52
2023-05-24T12:31:53.433Z,18.77
2023-05-24T12:34:20.625Z,18.95
2023-05-24T12:36:48.238Z,18.86
2023-05-24T12:39:19.146Z,19.07
2023-05-24T12:41:46.955Z,18.62
2023-05-24T12:44:13.593Z,18.10
2023-05-24T12:46:40.321Z,18.11
2023-05-24T12:49:07.102Z,18.13
2023-05-24T12:51:33.716Z,18.09
2023-05-24T12:54:02.425Z,18.23
2023-05-24T12:56:29.185Z,17.99
2023-05-24T12:58:55.958Z,18.42
2023-05-24T13:01:22.858Z,18.48
2023-05-24T13:03:49.892Z,18.10
2023-05-24T13:06:16.659Z,18.54
2023-05-24T13:08:43.743Z,18.45
2023-05-24T13:11:10.591Z,18.54
2023-05-24T13:13:38.393Z,18.46
2023-05-24T13:16:09.261Z,18.45
2023-05-24T13:18:35.986Z,18.13
2023-05-24T13:21:04.215Z,18.18
2023-05-24T13:23:34.484Z,18.45
2023-05-24T13:26:02.350Z,18.27
2023-05-24T13:28:30.783Z,18.27
2023-05-24T13:30:57.403Z,18.26
2023-05-24T13:33:24.287Z,18.05
2023-05-24T13:35:54.221Z,18.12
2023-05-24T13:38:21.969Z,18.14
2023-05-24T13:40:48.905Z,18.38
2023-05-24T13:43:15.723Z,18.14
2023-05-24T13:45:42.354Z,17.71
2023-05-24T13:48:09.165Z,17.43
2023-05-24T13:50:36.989Z,17.54
2023-05-24T13:53:05.077Z,17.95
2023-05-24T13:55:34.723Z,17.22
2023-05-24T13:58:02.093Z,17.68
2023-05-24T14:00:28.772Z,18.09
2023-05-24T14:02:56.035Z,17.89
2023-05-24T14:05:27.811Z,17.22
2023-05-24T14:07:55.466Z,16.61
2023-05-24T14:10:22.247Z,16.74
2023-05-24T14:12:59.479Z,16.38
2023-05-24T14:15:35.908Z,16.98
2023-05-24T14:18:08.237Z,17.10
2023-05-24T14:20:40.389Z,17.11
2023-05-24T14:23:10.300Z,16.98
2023-05-24T14:25:37.188Z,16.83
2023-05-24T14:28:04.064Z,16.83
2023-05-24T14:30:33.740Z,17.13
2023-05-24T14:33:03.051Z,17.13
2023-05-24T14:35:29.760Z,16.90
2023-05-24T14:37:59.878Z,16.74
2023-05-24T14:40:26.734Z,16.94
2023-05-24T14:42:53.343Z,16.77
2023-05-24T14:45:19.970Z,16.95
2023-05-24T14:47:46.667Z,16.90
2023-05-24T14:50:13.457Z,16.69
2023-05-24T14:52:40.250Z,17.19
2023-05-24T14:55:07.447Z,17.36
2023-05-24T14:57:34.127Z,16.99
2023-05-24T15:00:00.750Z,17.40
2023-05-24T15:02:29.070Z,17.45
2023-05-24T15:04:55.794Z,17.24
2023-05-24T15:07:23.372Z,17.39
2023-05-24T15:09:50.018Z,17.25
2023-05-24T15:12:16.870Z,17.31
2023-05-24T15:14:43.656Z,17.18
2023-05-24T15:17:11.041Z,17.21
2023-05-24T15:19:38.214Z,16.62
2023-05-24T15:22:05.012Z,16.65
2023-05-24T15:24:31.935Z,16.86
2023-05-24T15:26:58.866Z,16.72
2023-05-24T15:29:25.667Z,16.63
2023-05-24T15:31:52.622Z,16.53
2023-05-24T15:34:22.124Z,16.57
2023-05-24T15:36:50.082Z,16.55
2023-05-24T15:39:18.942Z,16.45
2023-05-24T15:41:46.714Z,16.42
2023-05-24T15:44:13.374Z,16.20
2023-05-24T15:46:40.518Z,16.17
2023-05-24T15:49:07.198Z,16.32
2023-05-24T15:52:03.130Z,16.17
2023-05-24T15:54:20.434Z,16.27
2023-05-24T15:56:47.093Z,16.08
2023-05-24T15:59:13.720Z,15.85
2023-05-24T16:01:40.597Z,15.71
2023-05-24T16:04:07.805Z,15.66
2023-05-24T16:06:34.762Z,15.65
2023-05-24T16:09:01.380Z,15.52
2023-05-24T16:11:28.011Z,15.55
2023-05-24T16:13:54.869Z,15.35
2023-05-24T16:16:23.778Z,15.38
2023-05-24T16:18:50.490Z,15.50
2023-05-24T16:21:17.676Z,15.64
2023-05-24T16:23:44.366Z,15.26
2023-05-24T16:26:10.953Z,15.34
2023-05-24T16:28:37.625Z,15.34
2023-05-24T16:31:04.327Z,15.28
2023-05-24T16:33:31.085Z,15.49
2023-05-24T16:35:59.179Z,15.21
2023-05-24T16:38:27.153Z,15.27
2023-05-24T16:40:54.772Z,15.17
2023-05-24T16:43:21.876Z,14.94
2023-05-24T16:45:48.592Z,15.02
2023-05-24T16:48:16.436Z,14.94
2023-05-24T16:50:43.353Z,14.95
2023-05-24T16:53:10.267Z,15.12
2023-05-24T16:55:36.968Z,15.20
2023-05-24T16:58:03.875Z,15.18
2023-05-24T17:00:30.763Z,15.18
2023-05-24T17:02:59.745Z,15.28
2023-05-24T17:05:26.478Z,15.37
2023-05-24T17:07:55.717Z,15.21
2023-05-24T17:10:22.646Z,15.36
2023-05-24T17:12:49.453Z,15.36
2023-05-24T17:15:16.845Z,15.34
2023-05-24T17:17:43.505Z,15.30
2023-05-24T17:20:10.678Z,15.37
2023-05-24T17:22:37.368Z,15.31
2023-05-24T17:25:04.511Z,15.38
2023-05-24T17:27:31.255Z,15.24
2023-05-24T17:29:57.856Z,15.24
2023-05-24T17:32:24.523Z,15.02
2023-05-24T17:34:51.308Z,15.10
2023-05-24T17:37:18.034Z,14.99
2023-05-24T17:39:44.655Z,15.01
2023-05-24T17:42:11.327Z,15.17
2023-05-24T17:44:38.014Z,15.09
2023-05-24T17:47:05.205Z,14.87
2023-05-24T17:49:32.531Z,14.83
2023-05-24T17:52:00.834Z,14.80
2023-05-24T17:54:27.827Z,14.69
2023-05-24T17:56:54.457Z,14.74
2023-05-24T17:59:21.848Z,14.76
2023-05-24T18:01:48.532Z,14.63
2023-05-24T18:04:15.508Z,14.49
2023-05-24T18:06:42.143Z,14.42
2023-05-24T18:09:08.765Z,14.47
2023-05-24T18:11:35.614Z,14.34
2023-05-24T18:14:04.030Z,14.44
2023-05-24T18:16:31.668Z,14.31
2023-05-24T18:18:58.518Z,14.33
2023-05-24T18:21:25.106Z,14.34
2023-05-24T18:23:51.806Z,14.27
2023-05-24T18:26:18.407Z,14.22
2023-05-24T18:28:45.090Z,14.16
2023-05-24T18:31:11.927Z,14.18
2023-05-24T18:33:38.746Z,14.04
2023-05-24T18:36:06.641Z,13.97
2023-05-24T18:38:34.513Z,13.90
2023-05-24T18:41:03.523Z,13.79
2023-05-24T18:43:32.279Z,13.79
2023-05-24T18:45:58.900Z,13.79
2023-05-24T18:48:25.548Z,13.67
2023-05-24T18:50:52.482Z,13.64
2023-05-24T18:53:19.157Z,13.56
2023-05-24T18:55:47.511Z,13.51
2023-05-24T18:58:15.372Z,13.51
2023-05-24T19:00:41.989Z,13.42
2023-05-24T19:03:11.087Z,13.46
2023-05-24T19:05:39.570Z,13.38
2023-05-24T19:08:08.159Z,13.31
2023-05-24T19:10:34.838Z,13.29
2023-05-24T19:13:01.430Z,13.11
2023-05-24T19:15:28.370Z,13.11
2023-05-24T19:17:55.861Z,13.04
2023-05-24T19:20:23.025Z,13.03
2023-05-24T19:22:51.039Z,12.98
2023-05-24T19:25:17.772Z,12.92
2023-05-24T19:27:58.449Z,12.89
2023-05-24T19:30:27.080Z,12.86
2023-05-24T19:32:53.913Z,12.80
2023-05-24T19:35:21.868Z,12.86
2023-05-24T19:37:48.451Z,12.81
2023-05-24T19:40:15.383Z,12.75
2023-05-24T19:42:42.069Z,12.75
2023-05-24T19:45:09.674Z,12.73
2023-05-24T19:47:37.226Z,12.60
2023-05-24T19:50:04.052Z,12.57
2023-05-24T19:52:30.747Z,12.50
2023-05-24T19:54:57.483Z,12.46
2023-05-24T19:57:24.141Z,12.47
2023-05-24T19:59:50.784Z,12.47
2023-05-24T20:02:17.417Z,12.43
2023-05-24T20:04:44.185Z,12.38
2023-05-24T20:07:11.126Z,12.45
2023-05-24T20:09:37.799Z,12.44
2023-05-24T20:12:05.033Z,12.36
2023-05-24T20:14:31.841Z,12.34
2023-05-24T20:16:59.535Z,12.34
2023-05-24T20:19:27.488Z,12.31
2023-05-24T20:21:54.428Z,12.25
2023-05-24T20:24:21.137Z,12.18
2023-05-24T20:26:48.400Z,12.14
2023-05-24T20:29:15.336Z,12.06
2023-05-24T20:31:42.715Z,12.07
2023-05-24T20:34:09.421Z,12.04
2023-05-24T20:36:36.556Z,12.03
2023-05-24T20:39:03.361Z,12.00
2023-05-24T20:41:34.257Z,11.93
2023-05-24T20:44:01.096Z,11.83
2023-05-24T20:46:27.754Z,11.80
2023-05-24T20:48:54.470Z,11.73
2023-05-24T20:51:23.215Z,11.69
2023-05-24T20:53:52.223Z,11.64
2023-05-24T20:56:20.424Z,11.48
2023-05-24T20:58:47.414Z,11.57
2023-05-24T21:01:14.103Z,11.48
2023-05-24T21:03:40.941Z,11.51
2023-05-24T21:06:07.811Z,11.47
2023-05-24T21:08:34.496Z,11.43
2023-05-24T21:11:01.390Z,11.48
2023-05-24T21:13:28.428Z,11.32
2023-05-24T21:15:55.137Z,11.42
2023-05-24T21:18:22.069Z,11.28
2023-05-24T21:20:48.901Z,11.34
2023-05-24T21:23:15.503Z,11.25
2023-05-24T21:25:42.287Z,11.15
2023-05-24T21:28:10.513Z,11.08
2023-05-24T21:30:37.312Z,11.12
2023-05-24T21:33:04.172Z,11.01
2023-05-24T21:35:32.640Z,11.12
2023-05-24T21:37:59.716Z,10.99
2023-05-24T21:40:26.481Z,10.96
2023-05-24T21:42:53.169Z,10.92
2023-05-24T21:45:19.776Z,11.01
2023-05-24T21:47:46.544Z,10.94
2023-05-24T21:50:13.298Z,10.93
2023-05-24T21:52:40.581Z,10.85
2023-05-24T21:55:07.730Z,10.81
2023-05-24T21:57:34.415Z,10.81
2023-05-24T22:00:01.500Z,10.82
2023-05-24T22:02:28.205Z,10.86
2023-05-24T22:04:54.955Z,10.88
2023-05-24T22:07:21.583Z,10.91
2023-05-24T22:09:48.268Z,10.88
2023-05-24T22:12:14.895Z,10.93
2023-05-24T22:14:41.751Z,10.97
2023-05-24T22:17:08.551Z,10.97
2023-05-24T22:19:40.621Z,10.97
2023-05-24T22:22:08.743Z,10.94
2023-05-24T22:24:35.856Z,10.96
2023-05-24T22:27:02.699Z,10.92
2023-05-24T22:29:29.876Z,10.95
2023-05-24T22:31:56.563Z,10.93
2023-05-24T22:34:27.764Z,10.93
2023-05-24T22:36:55.884Z,10.88
2023-05-24T22:39:22.517Z,10.87
2023-05-24T22:41:49.626Z,10.90
2023-05-24T22:44:16.912Z,10.83
2023-05-24T22:46:43.684Z,10.75
2023-05-24T22:49:13.400Z,10.68
2023-05-24T22:51:46.047Z,10.69
2023-05-24T22:54:12.746Z,10.69
2023-05-24T22:56:39.469Z,10.68
2023-05-24T22:59:07.520Z,10.59
2023-05-24T23:01:34.904Z,10.57
2023-05-24T23:04:15.846Z,10.50
2023-05-24T23:06:47.223Z,10.52
2023-05-24T23:09:13.964Z,10.48
2023-05-24T23:11:40.654Z,10.41
2023-05-24T23:14:09.056Z,10.44
2023-05-24T23:16:45.900Z,10.34
2023-05-24T23:19:18.948Z,10.35
2023-05-24T23:21:45.907Z,10.33
2023-05-24T23:24:16.201Z,10.31
2023-05-24T23:26:43.130Z,10.14
2023-05-24T23:29:09.871Z,10.17
2023-05-24T23:31:36.904Z,10.19
2023-05-24T23:34:04.792Z,10.13
2023-05-24T23:36:31.606Z,10.17
2023-05-24T23:38:58.657Z,10.12
2023-05-24T23:41:26.520Z,10.13
2023-05-24T23:43:53.207Z,9.94
2023-05-24T23:46:19.881Z,10.07
2023-05-24T23:48:46.577Z,10.02
2023-05-24T23:51:13.315Z,10.06
2023-05-24T23:53:40.024Z,9.98
2023-05-24T23:56:06.970Z,10.08
2023-05-24T23:58:34.145Z,10.08
